Time;durP1;ratioP1;P1;durP2;ratioP2;P2;SDS_P1;SDS_P2;PMS_P1;PMS_P2;Temp;Humidity;BMP_temperature;BMP_pressure;BME280_temperature;BME280_humidity;BME280_pressure;Samples;Min_cycle;Max_cycle;Signal;HPM_P1;HPM_P2
2021/07/12 00:00:19;;;;;;;1999.90;999.90;;;;;;;16.22;50.71;101008.47;4862531;28;97751;-77
2021/07/12 00:02:47;;;;;;;1999.90;999.90;;;;;;;16.18;50.77;101001.31;4861641;28;96855;-77
2021/07/12 00:05:15;;;;;;;1999.90;999.90;;;;;;;16.53;50.42;101009.41;4858860;28;99129;-75
2021/07/12 00:07:43;;;;;;;1999.90;999.90;;;;;;;16.26;50.76;101002.22;4859208;28;96731;-76
2021/07/12 00:10:13;;;;;;;1999.90;999.90;;;;;;;16.18;51.06;100997.75;4840966;28;97442;-76
2021/07/12 00:12:42;;;;;;;1999.90;999.90;;;;;;;16.12;50.96;101012.06;4862276;28;97366;-77
2021/07/12 00:15:13;;;;;;;1999.90;999.90;;;;;;;16.08;51.15;101003.09;4876134;28;97710;-77
2021/07/12 00:17:41;;;;;;;1999.90;999.90;;;;;;;16.02;51.23;101010.22;4860345;28;98506;-76
2021/07/12 00:20:10;;;;;;;1999.90;999.90;;;;;;;15.98;51.12;101013.75;4841640;28;97652;-77
2021/07/12 00:22:38;;;;;;;1999.90;999.90;;;;;;;16.34;51.00;101011.22;4861084;28;98373;-76
2021/07/12 00:25:08;;;;;;;1999.90;999.90;;;;;;;16.48;50.92;101000.44;4856731;28;99341;-77
2021/07/12 00:27:36;;;;;;;1999.90;999.90;;;;;;;16.18;51.53;101006.69;4858893;28;98054;-78
2021/07/12 00:30:06;;;;;;;1999.90;999.90;;;;;;;16.08;51.36;101005.78;4846126;28;97104;-77
2021/07/12 00:32:35;;;;;;;1999.90;999.90;;;;;;;16.00;51.44;101007.56;4859617;28;97941;-77
2021/07/12 00:35:05;;;;;;;1999.90;999.90;;;;;;;15.95;51.67;101003.94;4862002;28;100255;-77
2021/07/12 00:37:33;;;;;;;1999.90;999.90;;;;;;;15.91;51.64;100995.84;4859427;28;99230;-76
2021/07/12 00:40:02;;;;;;;1999.90;999.90;;;;;;;15.88;51.36;100991.38;4844025;28;97448;-77
2021/07/12 00:42:31;;;;;;;1999.90;999.90;;;;;;;16.18;51.29;100984.31;4861475;28;97285;-76
2021/07/12 00:44:59;;;;;;;1999.90;999.90;;;;;;;15.88;51.75;100988.72;4878531;28;99487;-76
2021/07/12 00:47:27;;;;;;;1999.90;999.90;;;;;;;15.81;51.94;100996.72;4853565;28;97537;-76
2021/07/12 00:49:56;;;;;;;1999.90;999.90;;;;;;;15.75;52.11;100992.25;4860006;28;97669;-76
2021/07/12 00:52:24;;;;;;;1999.90;999.90;;;;;;;15.71;52.08;100990.44;4863172;28;97537;-76
2021/07/12 00:54:51;;;;;;;1999.90;999.90;;;;;;;15.68;51.92;100998.47;4846363;28;99384;-76
2021/07/12 00:57:23;;;;;;;1999.90;999.90;;;;;;;15.65;52.25;100992.22;4859881;28;97841;-76
2021/07/12 00:59:52;;;;;;;1999.90;999.90;;;;;;;15.61;52.02;100982.34;4847251;28;97335;-77
2021/07/12 01:02:20;;;;;;;1999.90;999.90;;;;;;;15.58;52.23;100985.00;4845925;28;97964;-77
2021/07/12 01:04:52;;;;;;;1999.90;999.90;;;;;;;15.55;52.02;100987.69;4860904;28;97524;-76
2021/07/12 01:07:21;;;;;;;1999.90;999.90;;;;;;;15.54;51.95;100986.78;4865878;28;97633;-76
2021/07/12 01:09:50;;;;;;;1999.90;999.90;;;;;;;15.50;52.19;100987.66;4863894;28;97538;-77
2021/07/12 01:12:23;;;;;;;1999.90;999.90;;;;;;;15.48;52.03;100985.88;4862651;28;97233;-76
2021/07/12 01:14:56;;;;;;;1999.90;999.90;;;;;;;15.42;52.50;100986.75;4844351;28;100730;-76
2021/07/12 01:17:58;;;;;;;1999.90;999.90;;;;;;;15.38;52.55;100995.66;4847009;28;100383;-76
2021/07/12 01:21:05;;;;;;;1999.90;999.90;;;;;;;15.32;52.45;100992.94;4862631;28;97239;-77
2021/07/12 01:23:52;;;;;;;1999.90;999.90;;;;;;;15.31;52.62;100995.59;4859969;28;97251;-76
2021/07/12 01:26:57;;;;;;;1999.90;999.90;;;;;;;15.38;52.21;100992.97;4861738;28;98024;-76
2021/07/12 01:29:30;;;;;;;1999.90;999.90;;;;;;;15.75;51.76;100991.34;4845550;28;99103;-76
2021/07/12 01:32:28;;;;;;;1999.90;999.90;;;;;;;15.50;52.43;100986.78;4846841;28;97967;-76
2021/07/12 01:35:01;;;;;;;1999.90;999.90;;;;;;;15.37;52.40;100984.94;4863588;28;97530;-76
2021/07/12 01:37:39;;;;;;;1999.90;999.90;;;;;;;15.33;52.49;100993.84;4861809;28;100323;-76
2021/07/12 01:40:10;;;;;;;1999.90;999.90;;;;;;;15.29;52.36;100992.94;4848015;28;98956;-76
2021/07/12 01:42:42;;;;;;;1999.90;999.90;;;;;;;15.28;52.50;100984.84;4845479;28;98725;-76
2021/07/12 01:45:14;;;;;;;1999.90;999.90;;;;;;;15.65;52.02;100984.16;4849663;28;97960;-76
2021/07/12 01:47:51;;;;;;;1999.90;999.90;;;;;;;15.76;51.52;100979.69;4846269;28;100336;-76
2021/07/12 01:50:24;;;;;;;1999.90;999.90;;;;;;;15.47;52.19;100981.38;4846823;28;99510;-76
2021/07/12 01:53:02;;;;;;;1999.90;999.90;;;;;;;15.37;52.39;100975.09;4863085;28;97362;-76
2021/07/12 01:55:37;;;;;;;1999.90;999.90;;;;;;;15.34;52.81;100971.50;4846843;28;98665;-76
2021/07/12 01:58:10;;;;;;;1999.90;999.90;;;;;;;15.67;52.26;100975.22;4847656;28;100280;-76
2021/07/12 02:00:41;;;;;;;1999.90;999.90;;;;;;;15.40;52.67;100968.84;4865399;28;97819;-76
2021/07/12 02:03:14;;;;;;;1999.90;999.90;;;;;;;15.30;52.42;100967.03;4856081;28;97008;-77
2021/07/12 02:05:43;;;;;;;1999.90;999.90;;;;;;;15.25;52.48;100968.75;4857710;28;97504;-76
2021/07/12 02:08:14;;;;;;;1999.90;999.90;;;;;;;15.18;52.94;100962.44;4860377;28;101873;-76
2021/07/12 02:10:46;;;;;;;1999.90;999.90;;;;;;;15.57;52.40;100968.03;4858776;28;97718;-76
2021/07/12 02:13:20;;;;;;;1999.90;999.90;;;;;;;15.32;52.79;100960.75;4860521;28;99196;-74
2021/07/12 02:16:06;;;;;;;1999.90;999.90;;;;;;;15.22;52.49;100964.25;4857034;28;98180;-76
2021/07/12 02:18:38;;;;;;;1999.90;999.90;;;;;;;15.16;52.59;100958.00;4846497;28;99885;-76
2021/07/12 02:21:34;;;;;;;1999.90;999.90;;;;;;;15.57;52.00;100962.66;4860792;28;98250;-76
2021/07/12 02:24:35;;;;;;;1999.90;999.90;;;;;;;15.70;51.93;100963.59;4845671;28;97180;-75
2021/07/12 02:27:04;;;;;;;1999.90;999.90;;;;;;;15.75;51.86;100957.34;4845877;28;97876;-76
2021/07/12 02:29:32;;;;;;;1999.90;999.90;;;;;;;15.78;51.74;100953.75;4862051;28;100535;-77
2021/07/12 02:32:01;;;;;;;1999.90;999.90;;;;;;;15.82;51.48;100956.47;4842400;28;97137;-76
2021/07/12 02:34:35;;;;;;;1999.90;999.90;;;;;;;15.47;52.69;100966.19;4877403;28;98188;-77
2021/07/12 02:37:04;;;;;;;1999.90;999.90;;;;;;;15.33;52.79;100962.56;4847695;28;97811;-77
2021/07/12 02:39:36;;;;;;;1999.90;999.90;;;;;;;15.24;52.92;100957.13;4862013;28;99887;-76
2021/07/12 02:42:08;;;;;;;1999.90;999.90;;;;;;;15.20;53.12;100963.34;4862087;28;99822;-76
2021/07/12 02:44:38;;;;;;;1999.90;999.90;;;;;;;15.12;52.94;100957.03;4861841;28;98013;-77
2021/07/12 02:47:09;;;;;;;1999.90;999.90;;;;;;;15.07;52.83;100954.34;4863747;28;96951;-76
2021/07/12 02:49:38;;;;;;;1999.90;999.90;;;;;;;15.02;53.06;100949.84;4862630;28;97916;-77
2021/07/12 02:52:10;;;;;;;1999.90;999.90;;;;;;;14.97;53.30;100947.13;4860807;28;96982;-76
2021/07/12 02:54:42;;;;;;;1999.90;999.90;;;;;;;14.94;53.21;100943.53;4858537;28;98356;-77
2021/07/12 02:57:12;;;;;;;1999.90;999.90;;;;;;;14.92;53.11;100948.00;4843794;28;98802;-77
2021/07/12 02:59:40;;;;;;;1999.90;999.90;;;;;;;14.89;53.37;100942.63;4846307;28;99359;-77
2021/07/12 03:02:09;;;;;;;1999.90;999.90;;;;;;;14.85;53.30;100936.34;4877459;28;98166;-77
2021/07/12 03:04:38;;;;;;;1999.90;999.90;;;;;;;14.83;53.38;100937.22;4846236;28;97481;-77
2021/07/12 03:07:12;;;;;;;1999.90;999.90;;;;;;;14.82;53.40;100941.72;4862781;28;97537;-76
2021/07/12 03:09:42;;;;;;;1999.90;999.90;;;;;;;15.21;52.77;100935.63;4844276;28;97930;-76
2021/07/12 03:12:14;;;;;;;1999.90;999.90;;;;;;;14.97;53.39;100938.22;4861459;28;100350;-77
2021/07/12 03:14:46;;;;;;;1999.90;999.90;;;;;;;14.90;53.56;100941.75;4846826;28;97350;-77
2021/07/12 03:17:16;;;;;;;1999.90;999.90;;;;;;;14.84;53.57;100939.03;4844468;28;98059;-76
2021/07/12 03:19:47;;;;;;;1999.90;999.90;;;;;;;14.81;53.33;100939.03;4859819;28;97363;-77
2021/07/12 03:22:18;;;;;;;1999.90;999.90;;;;;;;14.77;53.49;100932.72;4862397;28;101692;-76
2021/07/12 03:24:54;;;;;;;1999.90;999.90;;;;;;;14.76;53.55;100930.03;4846028;28;97452;-76
2021/07/12 03:27:22;;;;;;;1999.90;999.90;;;;;;;14.76;53.49;100930.03;4860124;28;97460;-77
2021/07/12 03:29:53;;;;;;;1999.90;999.90;;;;;;;14.75;53.44;100925.59;4878265;28;98122;-76
2021/07/12 03:32:23;;;;;;;1999.90;999.90;;;;;;;14.72;53.54;100917.50;4861794;28;100174;-77
2021/07/12 03:34:57;;;;;;;1999.90;999.90;;;;;;;14.71;53.55;100918.41;4876582;28;96872;-77
2021/07/12 03:37:25;;;;;;;1999.90;999.90;;;;;;;14.68;53.57;100913.91;4861622;28;98419;-76
2021/07/12 03:39:53;;;;;;;1999.90;999.90;;;;;;;14.69;53.58;100918.41;4862214;28;98517;-76
2021/07/12 03:42:22;;;;;;;1999.90;999.90;;;;;;;14.67;53.64;100921.94;4845846;28;97967;-76
2021/07/12 03:44:54;;;;;;;1999.90;999.90;;;;;;;14.66;53.78;100917.50;4843247;28;96982;-76
2021/07/12 03:47:27;;;;;;;1999.90;999.90;;;;;;;14.64;53.66;100919.25;4876701;28;98273;-76
2021/07/12 03:50:05;;;;;;;1999.90;999.90;;;;;;;14.66;53.56;100918.34;4876286;28;98852;-75
2021/07/12 03:52:34;;;;;;;1999.90;999.90;;;;;;;14.63;53.67;100917.44;4860534;28;99727;-75
2021/07/12 03:55:03;;;;;;;1999.90;999.90;;;;;;;14.61;54.06;100921.94;4874064;28;97964;-75
2021/07/12 03:57:30;;;;;;;1999.90;999.90;;;;;;;15.00;54.19;100925.72;4859536;28;98459;-75
2021/07/12 03:59:58;;;;;;;1999.90;999.90;;;;;;;14.79;54.21;100924.72;4861575;28;97740;-76
2021/07/12 04:02:39;;;;;;;1999.90;999.90;;;;;;;14.71;54.46;100924.66;4858921;28;99438;-77
2021/07/12 04:05:09;;;;;;;1999.90;999.90;;;;;;;15.07;54.42;100915.94;4856861;28;98560;-76
2021/07/12 04:07:38;;;;;;;1999.90;999.90;;;;;;;14.85;54.53;100919.38;4859584;28;97206;-76
2021/07/12 04:10:09;;;;;;;1999.90;999.90;;;;;;;14.80;54.58;100931.84;4859979;28;98208;-76
2021/07/12 04:12:37;;;;;;;1999.90;999.90;;;;;;;14.76;54.74;100925.59;4857844;28;100393;-76
2021/07/12 04:15:07;;;;;;;1999.90;999.90;;;;;;;14.75;54.44;100930.94;4858414;28;97730;-76
2021/07/12 04:17:35;;;;;;;1999.90;999.90;;;;;;;14.74;54.70;100932.72;4861259;28;97900;-76
2021/07/12 04:20:04;;;;;;;1999.90;999.90;;;;;;;14.75;54.55;100936.28;4856050;28;99558;-76
2021/07/12 04:22:33;;;;;;;1999.90;999.90;;;;;;;14.74;54.42;100931.81;4861823;28;98859;-76
2021/07/12 04:25:01;;;;;;;1999.90;999.90;;;;;;;14.76;54.54;100930.03;4861273;28;97756;-76
2021/07/12 04:27:29;;;;;;;1999.90;999.90;;;;;;;15.14;54.74;100928.47;4861781;28;97472;-75
2021/07/12 04:29:57;;;;;;;1999.90;999.90;;;;;;;14.93;54.98;100939.09;4857787;28;99314;-77
2021/07/12 04:32:25;;;;;;;1999.90;999.90;;;;;;;14.87;54.90;100933.69;4873645;28;97846;-77
2021/07/12 04:34:52;;;;;;;1999.90;999.90;;;;;;;14.85;54.80;100935.44;4861640;28;96828;-74
2021/07/12 04:37:20;;;;;;;1999.90;999.90;;;;;;;14.82;54.92;100931.00;4861376;28;97096;-77
2021/07/12 04:39:49;;;;;;;1999.90;999.90;;;;;;;14.80;55.11;100934.53;4860025;28;98146;-77
2021/07/12 04:42:17;;;;;;;1999.90;999.90;;;;;;;14.79;54.80;100930.06;4842948;28;100844;-76
2021/07/12 04:44:45;;;;;;;1999.90;999.90;;;;;;;14.80;54.70;100931.84;4858740;28;97439;-76
2021/07/12 04:47:13;;;;;;;1999.90;999.90;;;;;;;14.79;55.21;100935.44;4858775;28;97804;-76
2021/07/12 04:49:41;;;;;;;1999.90;999.90;;;;;;;14.80;54.78;100937.22;4876750;28;99100;-75
2021/07/12 04:52:09;;;;;;;1999.90;999.90;;;;;;;14.79;54.79;100935.44;4843925;28;98017;-76
2021/07/12 04:54:36;;;;;;;1999.90;999.90;;;;;;;15.17;55.13;100931.19;4859806;28;97592;-75
2021/07/12 04:57:06;;;;;;;1999.90;999.90;;;;;;;14.97;55.66;100935.53;4861596;28;97440;-76
2021/07/12 04:59:38;;;;;;;1999.90;999.90;;;;;;;14.91;55.50;100936.41;4859981;28;98061;-76
2021/07/12 05:02:06;;;;;;;1999.90;999.90;;;;;;;14.90;55.42;100933.72;4850405;28;100893;-76
2021/07/12 05:04:34;;;;;;;1999.90;999.90;;;;;;;14.88;55.26;100936.38;4861081;28;98212;-77
2021/07/12 05:07:02;;;;;;;1999.90;999.90;;;;;;;14.88;55.60;100935.50;4845527;28;97374;-78
2021/07/12 05:09:30;;;;;;;1999.90;999.90;;;;;;;14.88;55.26;100922.97;4861320;28;97753;-77
2021/07/12 05:11:59;;;;;;;1999.90;999.90;;;;;;;14.94;55.27;100927.47;4860352;28;99455;-77
2021/07/12 05:14:29;;;;;;;1999.90;999.90;;;;;;;14.96;54.94;100933.72;4860546;28;98065;-77
2021/07/12 05:16:57;;;;;;;1999.90;999.90;;;;;;;14.94;55.38;100930.16;4877730;28;97995;-76
2021/07/12 05:19:24;;;;;;;1999.90;999.90;;;;;;;14.92;54.95;100923.88;4862637;28;97878;-77
2021/07/12 05:21:52;;;;;;;1999.90;999.90;;;;;;;14.90;55.38;100923.88;4861296;28;99835;-77
2021/07/12 05:24:20;;;;;;;1999.90;999.90;;;;;;;14.88;55.47;100925.66;4859889;28;98642;-77
2021/07/12 05:26:48;;;;;;;1999.90;999.90;;;;;;;14.88;55.43;100914.94;4860793;28;98527;-77
2021/07/12 05:29:17;;;;;;;1999.90;999.90;;;;;;;14.88;55.20;100914.06;4860468;28;99790;-76
2021/07/12 05:31:46;;;;;;;1999.90;999.90;;;;;;;14.88;55.38;100911.38;4863441;28;99350;-76
2021/07/12 05:34:14;;;;;;;1999.90;999.90;;;;;;;14.88;55.32;100912.25;4863561;28;97582;-76
2021/07/12 05:36:43;;;;;;;1999.90;999.90;;;;;;;14.89;55.57;100905.13;4865470;28;97665;-77
2021/07/12 05:39:11;;;;;;;1999.90;999.90;;;;;;;14.91;55.43;100914.06;4864594;28;98082;-76
2021/07/12 05:41:39;;;;;;;1999.90;999.90;;;;;;;14.94;55.11;100908.72;4863747;28;98510;-76
2021/07/12 05:44:07;;;;;;;1999.90;999.90;;;;;;;14.97;55.32;100904.25;4864708;28;97798;-76
2021/07/12 05:46:35;;;;;;;1999.90;999.90;;;;;;;14.96;55.24;100901.56;4847765;28;98448;-76
2021/07/12 05:49:06;;;;;;;1999.90;999.90;;;;;;;14.95;55.56;100899.78;4863197;28;98564;-77
2021/07/12 05:51:34;;;;;;;1999.90;999.90;;;;;;;14.95;55.08;100905.16;4864637;28;98854;-76
2021/07/12 05:54:01;;;;;;;1999.90;999.90;;;;;;;14.93;55.29;100906.94;4864347;28;97276;-76
2021/07/12 05:56:29;;;;;;;1999.90;999.90;;;;;;;14.91;55.39;100897.97;4863653;28;97190;-75
2021/07/12 05:58:57;;;;;;;1999.90;999.90;;;;;;;14.89;55.29;100899.75;4865971;28;97739;-77
2021/07/12 06:01:44;;;;;;;1999.90;999.90;;;;;;;14.92;55.54;100899.75;4847077;28;99728;-78
2021/07/12 06:04:14;;;;;;;1999.90;999.90;;;;;;;14.92;55.45;100905.13;4866074;28;97588;-78
2021/07/12 06:06:42;;;;;;;1999.90;999.90;;;;;;;14.94;55.72;100903.34;4865538;28;97097;-76
2021/07/12 06:09:09;;;;;;;1999.90;999.90;;;;;;;14.95;55.45;100902.47;4863679;28;99755;-76
2021/07/12 06:11:37;;;;;;;1999.90;999.90;;;;;;;14.98;55.57;100905.16;4857191;28;99415;-77
2021/07/12 06:14:05;;;;;;;1999.90;999.90;;;;;;;14.99;55.58;100907.84;4862040;28;97445;-77
2021/07/12 06:16:33;;;;;;;1999.90;999.90;;;;;;;15.00;55.72;100915.00;4862433;28;97038;-77
2021/07/12 06:19:01;;;;;;;1999.90;999.90;;;;;;;15.05;55.59;100920.38;4861430;28;98143;-77
2021/07/12 06:21:30;;;;;;;1999.90;999.90;;;;;;;15.04;55.71;100918.59;4862465;28;98313;-77
2021/07/12 06:23:58;;;;;;;1999.90;999.90;;;;;;;15.04;55.60;100919.50;4864029;28;97553;-77
2021/07/12 06:26:26;;;;;;;1999.90;999.90;;;;;;;15.06;55.29;100915.03;4861886;28;97958;-77
2021/07/12 06:28:53;;;;;;;1999.90;999.90;;;;;;;15.06;55.82;100917.69;4863261;28;99984;-77
2021/07/12 06:31:21;;;;;;;1999.90;999.90;;;;;;;15.08;55.61;100925.78;4846294;28;97824;-77
2021/07/12 06:33:49;;;;;;;1999.90;999.90;;;;;;;15.43;56.12;100917.91;4860690;28;96519;-77
2021/07/12 06:36:17;;;;;;;1999.90;999.90;;;;;;;15.63;56.27;100919.75;4862307;28;97062;-75
2021/07/12 06:38:46;;;;;;;1999.90;999.90;;;;;;;15.77;56.06;100922.47;4861507;28;99055;-76
2021/07/12 06:41:14;;;;;;;1999.90;999.90;;;;;;;15.89;56.10;100920.69;4861438;28;100192;-76
2021/07/12 06:43:42;;;;;;;1999.90;999.90;;;;;;;16.02;56.01;100925.22;4863064;28;97630;-76
2021/07/12 06:46:13;;;;;;;1999.90;999.90;;;;;;;15.76;56.44;100937.66;4847154;28;97687;-76
2021/07/12 06:48:43;;;;;;;1999.90;999.90;;;;;;;15.69;56.31;100930.50;4862350;28;97813;-76
2021/07/12 06:51:16;;;;;;;1999.90;999.90;;;;;;;15.64;56.23;100924.25;4847214;28;101138;-76
2021/07/12 06:53:43;;;;;;;1999.90;999.90;;;;;;;15.60;56.11;100930.47;4863017;28;97919;-76
2021/07/12 06:56:14;;;;;;;1999.90;999.90;;;;;;;15.62;56.30;100922.44;4862284;28;97386;-76
2021/07/12 06:58:41;;;;;;;1999.90;999.90;;;;;;;15.62;56.33;100931.38;4864298;28;97968;-76
2021/07/12 07:01:09;;;;;;;1999.90;999.90;;;;;;;15.66;55.83;100935.88;4863623;28;101175;-77
2021/07/12 07:03:37;;;;;;;1999.90;999.90;;;;;;;15.70;56.07;100926.91;4860850;28;97031;-77
2021/07/12 07:06:05;;;;;;;1999.90;999.90;;;;;;;15.72;56.03;100925.13;4862130;28;97330;-77
2021/07/12 07:08:34;;;;;;;1999.90;999.90;;;;;;;15.76;55.83;100918.88;4846738;28;100679;-76
2021/07/12 07:11:02;;;;;;;1999.90;999.90;;;;;;;15.83;55.35;100922.50;4846453;28;100670;-77
2021/07/12 07:13:32;;;;;;;1999.90;999.90;;;;;;;15.86;55.42;100923.41;4860836;28;97304;-77
2021/07/12 07:16:03;;;;;;;1999.90;999.90;;;;;;;15.92;55.26;100920.69;4860989;28;97531;-77
2021/07/12 07:18:31;;;;;;;1999.90;999.90;;;;;;;15.97;55.29;100916.25;4863932;28;98083;-77
2021/07/12 07:21:00;;;;;;;1999.90;999.90;;;;;;;16.03;55.41;100916.28;4861618;28;99662;-76
2021/07/12 07:23:28;;;;;;;1999.90;999.90;;;;;;;16.07;54.99;100906.44;4863105;28;97699;-76
2021/07/12 07:25:56;;;;;;;1999.90;999.90;;;;;;;16.13;54.70;100900.16;4862739;28;98169;-76
2021/07/12 07:28:24;;;;;;;1999.90;999.90;;;;;;;16.22;54.87;100902.84;4862453;28;97758;-76
2021/07/12 07:30:53;;;;;;;1999.90;999.90;;;;;;;16.27;54.68;100893.03;4862169;28;98083;-77
2021/07/12 07:33:25;;;;;;;1999.90;999.90;;;;;;;16.32;54.70;100891.22;4861234;28;97882;-76
2021/07/12 07:35:53;;;;;;;1999.90;999.90;;;;;;;16.39;54.55;100884.94;4862754;28;98161;-76
2021/07/12 07:38:21;;;;;;;1999.90;999.90;;;;;;;16.49;54.02;100884.06;4846262;28;99873;-77
2021/07/12 07:40:49;;;;;;;1999.90;999.90;;;;;;;16.52;54.28;100878.66;4877568;28;99196;-76
2021/07/12 07:43:16;;;;;;;1999.90;999.90;;;;;;;16.72;54.31;100869.72;4860787;28;98137;-75
2021/07/12 07:45:44;;;;;;;1999.90;999.90;;;;;;;16.68;54.36;100869.69;4860742;28;97478;-77
2021/07/12 07:48:13;;;;;;;1999.90;999.90;;;;;;;16.89;54.33;100870.53;4860783;28;98388;-77
2021/07/12 07:50:43;;;;;;;1999.90;999.90;;;;;;;16.83;54.40;100869.69;4863127;28;98769;-75
2021/07/12 07:53:11;;;;;;;1999.90;999.90;;;;;;;16.84;54.22;100871.44;4862931;28;98003;-76
2021/07/12 07:55:40;;;;;;;1999.90;999.90;;;;;;;16.92;53.91;100872.34;4860206;28;96986;-76
2021/07/12 07:58:08;;;;;;;1999.90;999.90;;;;;;;16.92;54.00;100872.34;4862345;28;98741;-77
2021/07/12 08:00:36;;;;;;;1999.90;999.90;;;;;;;16.93;54.07;100871.41;4861190;28;97601;-78
2021/07/12 08:03:04;;;;;;;1999.90;999.90;;;;;;;16.95;53.84;100869.63;4861045;28;97385;-77
2021/07/12 08:05:34;;;;;;;1999.90;999.90;;;;;;;16.97;53.65;100866.03;4844617;28;97197;-75
2021/07/12 08:08:02;;;;;;;1999.90;999.90;;;;;;;17.03;53.69;100865.13;4862959;28;98964;-76
2021/07/12 08:10:34;;;;;;;1999.90;999.90;;;;;;;17.06;53.59;100868.69;4861452;28;97364;-77
2021/07/12 08:13:07;;;;;;;1999.90;999.90;;;;;;;17.06;53.55;100863.31;4856642;28;98298;-77
2021/07/12 08:15:40;;;;;;;1999.90;999.90;;;;;;;17.07;53.48;100858.84;4859700;28;97391;-77
2021/07/12 08:18:11;;;;;;;1999.90;999.90;;;;;;;17.18;53.16;100862.38;4861105;28;97387;-76
2021/07/12 08:20:40;;;;;;;1999.90;999.90;;;;;;;17.23;53.06;100865.94;4860856;28;99023;-77
2021/07/12 08:23:08;;;;;;;1999.90;999.90;;;;;;;17.21;53.17;100867.72;4860728;28;97518;-77
2021/07/12 08:25:35;;;;;;;1999.90;999.90;;;;;;;17.23;53.21;100871.31;4860851;28;96999;-77
2021/07/12 08:28:04;;;;;;;1999.90;999.90;;;;;;;17.28;53.01;100873.97;4861313;28;97603;-76
2021/07/12 08:30:32;;;;;;;1999.90;999.90;;;;;;;17.32;53.01;100871.28;4861637;28;99204;-77
2021/07/12 08:33:00;;;;;;;1999.90;999.90;;;;;;;17.37;52.92;100868.53;4861599;28;97585;-76
2021/07/12 08:35:28;;;;;;;1999.90;999.90;;;;;;;17.38;52.76;100860.53;4845441;28;97358;-77
2021/07/12 08:37:57;;;;;;;1999.90;999.90;;;;;;;17.42;52.51;100864.09;4862111;28;97818;-77
2021/07/12 08:40:28;;;;;;;1999.90;999.90;;;;;;;17.48;52.72;100873.00;4862360;28;98098;-76
2021/07/12 08:42:57;;;;;;;1999.90;999.90;;;;;;;17.49;52.53;100874.78;4861300;28;97641;-76
2021/07/12 08:45:31;;;;;;;1999.90;999.90;;;;;;;17.58;52.51;100868.47;4859797;28;97620;-76
2021/07/12 08:48:00;;;;;;;1999.90;999.90;;;;;;;17.58;52.42;100860.38;4861708;28;99706;-78
2021/07/12 08:50:29;;;;;;;1999.90;999.90;;;;;;;17.63;52.17;100862.16;4861700;28;98753;-76
2021/07/12 08:52:58;;;;;;;1999.90;999.90;;;;;;;17.62;52.50;100863.03;4860941;28;98048;-77
2021/07/12 08:55:27;;;;;;;1999.90;999.90;;;;;;;17.63;52.39;100862.16;4844970;28;97583;-77
2021/07/12 08:58:01;;;;;;;1999.90;999.90;;;;;;;17.66;52.05;100862.13;4861315;28;97710;-77
2021/07/12 09:00:39;;;;;;;1999.90;999.90;;;;;;;17.68;52.07;100860.31;4845270;28;99382;-77
2021/07/12 09:03:19;;;;;;;1999.90;999.90;;;;;;;17.80;52.13;100856.66;4859252;28;97747;-76
2021/07/12 09:05:57;;;;;;;1999.90;999.90;;;;;;;17.88;51.79;100858.38;4864132;28;97248;-77
2021/07/12 09:08:45;;;;;;;1999.90;999.90;;;;;;;17.86;51.68;100854.78;4865394;28;97636;-76
2021/07/12 09:11:16;;;;;;;1999.90;999.90;;;;;;;17.85;51.71;100853.03;4864270;28;97212;-77
2021/07/12 09:13:53;;;;;;;1999.90;999.90;;;;;;;17.86;51.91;100857.50;4861509;28;98588;-77
2021/07/12 09:16:42;;;;;;;1999.90;999.90;;;;;;;17.85;51.48;100853.03;4863559;28;97465;-75
2021/07/12 09:19:16;;;;;;;1999.90;999.90;;;;;;;17.86;51.75;100852.09;4864559;28;97736;-75
2021/07/12 09:21:45;;;;;;;1999.90;999.90;;;;;;;17.91;51.72;100852.09;4865462;28;97573;-77
2021/07/12 09:24:21;;;;;;;1999.90;999.90;;;;;;;17.93;51.47;100851.16;4865170;28;97660;-76
2021/07/12 09:26:55;;;;;;;1999.90;999.90;;;;;;;18.00;51.45;100841.25;4848054;28;97389;-76
2021/07/12 09:29:24;;;;;;;1999.90;999.90;;;;;;;18.07;51.40;100839.41;4864203;28;99812;-76
2021/07/12 09:31:53;;;;;;;1999.90;999.90;;;;;;;18.11;51.06;100838.47;4863671;28;101256;-76
2021/07/12 09:34:22;;;;;;;1999.90;999.90;;;;;;;18.18;51.18;100842.91;4864148;28;97435;-77
2021/07/12 09:36:51;;;;;;;1999.90;999.90;;;;;;;18.22;50.86;100847.34;4866982;28;97743;-75
2021/07/12 09:39:26;;;;;;;1999.90;999.90;;;;;;;18.25;51.01;100837.44;4878923;28;102079;-75
2021/07/12 09:41:55;;;;;;;1999.90;999.90;;;;;;;18.28;50.79;100831.13;4863780;28;99976;-77
2021/07/12 09:44:26;;;;;;;1999.90;999.90;;;;;;;18.32;50.64;100817.63;4863775;28;99011;-76
2021/07/12 09:46:55;;;;;;;1999.90;999.90;;;;;;;18.34;50.77;100826.56;4848120;28;98151;-76
2021/07/12 09:49:23;;;;;;;1999.90;999.90;;;;;;;18.32;50.56;100811.31;4863535;28;99238;-76
2021/07/12 09:51:57;;;;;;;1999.90;999.90;;;;;;;18.35;50.76;100812.19;4847220;28;100375;-76
2021/07/12 09:54:31;;;;;;;1999.90;999.90;;;;;;;18.37;50.77;100807.69;4864130;28;96920;-76
2021/07/12 09:57:03;;;;;;;1999.90;999.90;;;;;;;18.42;50.51;100804.94;4865683;28;96890;-75
2021/07/12 09:59:32;;;;;;;1999.90;999.90;;;;;;;18.48;50.21;100808.44;4864250;28;97947;-77
2021/07/12 10:02:00;;;;;;;1999.90;999.90;;;;;;;18.52;50.33;100795.84;4865293;28;97664;-76
2021/07/12 10:04:28;;;;;;;1999.90;999.90;;;;;;;18.57;50.54;100800.25;4858176;28;97682;-76
2021/07/12 10:06:58;;;;;;;1999.90;999.90;;;;;;;18.65;50.02;100798.38;4867662;28;96872;-76
2021/07/12 10:09:27;;;;;;;1999.90;999.90;;;;;;;18.69;50.01;100792.09;4864220;28;99651;-76
2021/07/12 10:11:56;;;;;;;1999.90;999.90;;;;;;;18.76;49.88;100793.78;4852078;28;97956;-77
2021/07/12 10:14:25;;;;;;;1999.90;999.90;;;;;;;18.81;50.13;100781.13;4862756;28;97765;-77
2021/07/12 10:16:54;;;;;;;1999.90;999.90;;;;;;;18.90;49.58;100785.50;4867265;28;97023;-77
2021/07/12 10:19:21;;;;;;;1999.90;999.90;;;;;;;18.95;49.41;100783.69;4867461;28;98306;-78
2021/07/12 10:21:51;;;;;;;1999.90;999.90;;;;;;;19.17;48.83;100781.56;4861786;28;97826;-76
2021/07/12 10:24:21;;;;;;;1999.90;999.90;;;;;;;19.18;49.08;100775.25;4848498;28;97747;-76
2021/07/12 10:26:53;;;;;;;1999.90;999.90;;;;;;;19.23;48.96;100774.25;4870250;28;97650;-76
2021/07/12 10:29:30;;;;;;;1999.90;999.90;;;;;;;19.23;48.94;100760.78;4878423;28;98126;-76
2021/07/12 10:32:10;;;;;;;1999.90;999.90;;;;;;;19.24;49.27;100762.59;4863792;28;99166;-76
2021/07/12 10:34:41;;;;;;;1999.90;999.90;;;;;;;19.25;49.19;100760.75;4847295;28;97612;-79
2021/07/12 10:37:21;;;;;;;1999.90;999.90;;;;;;;19.30;48.74;100757.06;4863919;28;97828;-76
2021/07/12 10:40:11;;;;;;;1999.90;999.90;;;;;;;19.37;48.43;100748.00;4863669;28;99782;-76
2021/07/12 10:42:51;;;;;;;1999.90;999.90;;;;;;;19.47;48.69;100744.25;4864572;28;97651;-76
2021/07/12 10:45:20;;;;;;;1999.90;999.90;;;;;;;19.49;48.75;100739.72;4862474;28;97471;-76
2021/07/12 10:47:49;;;;;;;1999.90;999.90;;;;;;;19.52;48.50;100739.66;4864505;28;98172;-76
2021/07/12 10:50:43;;;;;;;1999.90;999.90;;;;;;;19.55;47.86;100742.34;4862972;28;97812;-76
2021/07/12 10:53:47;;;;;;;1999.90;999.90;;;;;;;19.63;48.22;100737.69;4861999;28;99269;-76
2021/07/12 10:56:19;;;;;;;1999.90;999.90;;;;;;;19.76;48.19;100730.25;4862452;28;97274;-77
2021/07/12 10:58:49;;;;;;;1999.90;999.90;;;;;;;19.83;47.54;100732.81;4846260;28;98114;-76
2021/07/12 11:01:39;;;;;;;1999.90;999.90;;;;;;;19.90;47.22;100728.22;4862965;28;98974;-76
2021/07/12 11:04:33;;;;;;;1999.90;999.90;;;;;;;19.93;47.34;100736.28;4858075;28;98108;-77